createdAt,value
2018-12-20T00:02:04.214Z,32.83
2018-12-20T00:04:35.182Z,28.60
2018-12-20T00:07:08.818Z,31.53
2018-12-20T00:09:40.223Z,31.37
2018-12-20T00:12:11.167Z,33.90
2018-12-20T00:14:42.171Z,33.43
2018-12-20T00:17:21.292Z,36.87
2018-12-20T00:19:52.197Z,29.77
2018-12-20T00:22:23.383Z,34.17
2018-12-20T00:24:54.218Z,33.67
2018-12-20T00:27:25.491Z,38.67
2018-12-20T00:29:56.654Z,37.23
2018-12-20T00:32:27.827Z,35.80
2018-12-20T00:34:59.572Z,34.33
2018-12-20T00:37:28.873Z,32.63
2018-12-20T00:40:06.223Z,38.87
2018-12-20T00:42:32.975Z,33.97
2018-12-20T00:45:04.613Z,29.97
2018-12-20T00:47:36.172Z,30.83
2018-12-20T00:50:09.852Z,30.87
2018-12-20T00:52:41.462Z,37.77
2018-12-20T00:55:12.224Z,35.43
2018-12-20T00:57:43.557Z,33.10
2018-12-20T01:00:14.961Z,32.73
2018-12-20T01:02:46.078Z,36.77
2018-12-20T01:05:19.527Z,33.87
2018-12-20T01:07:50.862Z,37.83
2018-12-20T01:13:25.651Z,32.53
2018-12-20T01:15:55.059Z,33.53
2018-12-20T01:18:26.727Z,32.67
2018-12-20T01:20:55.999Z,35.67
2018-12-20T01:23:27.052Z,31.83
2018-12-20T01:25:58.202Z,36.33
2018-12-20T01:28:29.541Z,31.63
2018-12-20T01:31:00.381Z,33.63
2018-12-20T01:33:31.737Z,30.83
2018-12-20T01:36:03.224Z,32.23
2018-12-20T01:38:36.760Z,30.40
2018-12-20T01:41:08.181Z,27.97
2018-12-20T01:43:39.325Z,29.30
2018-12-20T01:46:10.606Z,32.60
2018-12-20T01:48:42.318Z,32.47
2018-12-20T01:51:13.185Z,30.93
2018-12-20T01:53:47.069Z,31.30
2018-12-20T01:58:47.637Z,30.67
2018-12-20T02:01:18.828Z,31.57
2018-12-20T02:03:49.820Z,29.93
2018-12-20T02:06:20.979Z,30.23
2018-12-20T02:08:51.803Z,33.00
2018-12-20T02:11:22.924Z,30.80
2018-12-20T02:13:53.898Z,35.23
2018-12-20T02:16:27.449Z,31.90
2018-12-20T02:18:58.860Z,30.73
2018-12-20T02:21:32.199Z,30.87
2018-12-20T02:24:03.881Z,27.03
2018-12-20T02:26:34.897Z,34.43
2018-12-20T02:29:05.823Z,33.47
2018-12-20T02:31:36.684Z,30.97
2018-12-20T02:34:07.876Z,33.23
2018-12-20T02:36:39.354Z,27.63
2018-12-20T02:39:11.001Z,36.37
2018-12-20T02:41:42.393Z,31.53
2018-12-20T02:44:13.448Z,31.57
2018-12-20T02:46:45.404Z,32.07
2018-12-20T02:49:16.567Z,30.13
2018-12-20T02:51:48.396Z,32.90
2018-12-20T02:54:19.324Z,32.00
2018-12-20T02:56:50.148Z,32.10
2018-12-20T02:59:21.178Z,29.33
2018-12-20T03:01:52.029Z,28.13
2018-12-20T03:04:23.239Z,30.20
2018-12-20T03:06:56.973Z,33.17
2018-12-20T03:09:32.292Z,31.27
2018-12-20T03:12:03.874Z,30.27
2018-12-20T03:14:34.931Z,26.27
2018-12-20T03:17:06.162Z,34.00
2018-12-20T03:19:38.197Z,33.73
2018-12-20T03:22:09.777Z,33.13
2018-12-20T03:24:41.051Z,28.60
2018-12-20T03:27:11.921Z,28.60
2018-12-20T03:29:42.975Z,31.73
2018-12-20T03:32:14.130Z,34.17
2018-12-20T03:34:45.042Z,30.17
2018-12-20T03:37:16.992Z,29.07
2018-12-20T03:39:47.897Z,29.30
2018-12-20T03:42:21.669Z,32.50
2018-12-20T03:44:52.779Z,25.80
2018-12-20T03:47:23.820Z,31.73
2018-12-20T03:49:54.894Z,30.30
2018-12-20T03:52:26.042Z,32.73
2018-12-20T03:54:56.973Z,29.80
2018-12-20T04:05:06.652Z,32.27
2018-12-20T04:07:37.563Z,34.33
2018-12-20T04:10:08.868Z,36.80
2018-12-20T04:12:39.784Z,29.77
2018-12-20T04:15:11.103Z,30.73
2018-12-20T04:17:40.580Z,30.37
2018-12-20T04:20:14.490Z,31.10
2018-12-20T04:22:45.895Z,32.90
2018-12-20T04:25:16.933Z,33.30
2018-12-20T04:27:48.192Z,29.50
2018-12-20T04:30:21.663Z,29.70
2018-12-20T04:32:53.524Z,32.77
2018-12-20T04:35:25.339Z,36.70
2018-12-20T04:37:56.829Z,32.87
2018-12-20T04:40:27.702Z,29.97
2018-12-20T04:42:58.772Z,32.97
2018-12-20T04:45:32.241Z,35.73
2018-12-20T04:48:03.949Z,32.87
2018-12-20T04:50:36.001Z,29.27
2018-12-20T04:53:09.641Z,32.87
2018-12-20T04:55:40.647Z,31.13
2018-12-20T04:58:14.247Z,29.40
2018-12-20T05:00:45.669Z,29.20
2018-12-20T05:03:16.771Z,34.80
2018-12-20T05:05:50.359Z,29.07
2018-12-20T05:08:21.656Z,27.47
2018-12-20T05:10:52.613Z,32.23
2018-12-20T05:13:23.643Z,31.53
2018-12-20T05:15:56.383Z,29.97
2018-12-20T05:18:27.713Z,24.90
2018-12-20T05:21:01.108Z,24.00
2018-12-20T05:23:32.367Z,27.80
2018-12-20T05:26:03.859Z,25.40
2018-12-20T05:28:35.296Z,30.10
2018-12-20T05:31:06.215Z,26.37
2018-12-20T05:33:37.513Z,31.67
2018-12-20T05:36:09.020Z,29.67
2018-12-20T05:38:39.927Z,35.87
2018-12-20T05:41:13.704Z,32.27
2018-12-20T05:43:45.092Z,32.43
2018-12-20T05:46:18.801Z,33.17
2018-12-20T05:48:50.442Z,33.47
2018-12-20T05:51:24.557Z,30.20
2018-12-20T05:53:55.811Z,29.97
2018-12-20T05:56:26.939Z,34.53
2018-12-20T05:58:57.931Z,28.80
2018-12-20T06:01:29.061Z,27.70
2018-12-20T06:04:00.820Z,27.80
2018-12-20T06:06:32.087Z,29.07
2018-12-20T06:09:06.975Z,29.30
2018-12-20T06:11:38.311Z,35.90
2018-12-20T06:14:09.295Z,32.37
2018-12-20T06:16:40.368Z,29.07
2018-12-20T06:19:15.160Z,30.33
2018-12-20T06:21:46.523Z,30.43
2018-12-20T06:24:17.459Z,29.07
2018-12-20T06:26:48.361Z,34.23
2018-12-20T06:29:19.366Z,28.57
2018-12-20T06:31:50.312Z,32.30
2018-12-20T06:34:23.896Z,24.70
2018-12-20T06:36:55.388Z,28.87
2018-12-20T06:39:26.484Z,24.17
2018-12-20T06:41:57.656Z,30.93
2018-12-20T06:44:28.641Z,26.50
2018-12-20T06:47:02.407Z,28.90
2018-12-20T06:49:33.818Z,23.20
2018-12-20T06:52:04.821Z,23.90
2018-12-20T06:54:36.210Z,24.77
2018-12-20T06:57:07.208Z,27.37
2018-12-20T06:59:38.094Z,20.43
2018-12-20T07:02:09.250Z,20.23
2018-12-20T07:04:41.024Z,18.87
2018-12-20T07:07:12.695Z,14.13
2018-12-20T07:09:43.629Z,18.87
2018-12-20T07:12:14.495Z,16.53
2018-12-20T07:14:45.515Z,17.43
2018-12-20T07:19:58.268Z,19.70
2018-12-20T07:22:29.139Z,14.57
2018-12-20T07:25:03.395Z,18.97
2018-12-20T07:27:36.332Z,14.50
2018-12-20T07:30:09.904Z,14.77
2018-12-20T07:32:43.685Z,15.50
2018-12-20T07:35:14.387Z,13.67
2018-12-20T07:37:45.318Z,13.93
2018-12-20T07:40:16.191Z,14.83
2018-12-20T07:42:47.423Z,11.87
2018-12-20T07:45:21.092Z,11.70
2018-12-20T07:47:52.628Z,10.67
2018-12-20T07:50:23.542Z,13.10
2018-12-20T07:52:54.584Z,10.60
2018-12-20T07:55:23.795Z,15.23
2018-12-20T07:57:53.619Z,11.67
2018-12-20T08:00:24.498Z,12.73
2018-12-20T08:02:55.389Z,11.90
2018-12-20T08:05:26.451Z,13.30
2018-12-20T08:07:57.690Z,9.37
2018-12-20T08:10:28.791Z,10.63
2018-12-20T08:13:00.195Z,11.80
2018-12-20T08:15:31.785Z,11.20
2018-12-20T08:18:03.854Z,14.60
2018-12-20T08:20:35.040Z,11.47
2018-12-20T08:23:06.083Z,11.47
2018-12-20T08:25:37.642Z,13.23
2018-12-20T08:28:09.165Z,11.37
2018-12-20T08:30:40.556Z,13.40
2018-12-20T08:33:15.715Z,16.97
2018-12-20T08:35:49.075Z,12.80
2018-12-20T08:41:24.575Z,13.87
2018-12-20T08:43:55.850Z,13.87
2018-12-20T08:46:26.875Z,14.47
2018-12-20T08:48:58.285Z,17.23
2018-12-20T08:51:27.988Z,12.73
2018-12-20T08:53:58.785Z,12.60
2018-12-20T08:56:30.616Z,9.80
2018-12-20T08:59:06.288Z,11.27
2018-12-20T09:01:38.631Z,10.67
2018-12-20T09:04:13.147Z,10.03
2018-12-20T09:06:46.783Z,8.43
2018-12-20T09:09:19.314Z,11.40
2018-12-20T09:11:50.227Z,9.43
2018-12-20T09:14:23.903Z,8.17
2018-12-20T09:17:02.641Z,7.27
2018-12-20T09:19:28.951Z,6.40
2018-12-20T09:21:59.947Z,7.53
2018-12-20T09:24:31.941Z,6.30
2018-12-20T09:27:02.998Z,10.00
2018-12-20T09:29:34.611Z,8.47
2018-12-20T09:32:05.839Z,5.13
2018-12-20T09:34:36.748Z,9.10
2018-12-20T09:37:07.532Z,6.57
2018-12-20T09:39:38.643Z,6.80
2018-12-20T09:42:12.136Z,9.33
2018-12-20T09:44:44.260Z,8.80
2018-12-20T09:47:21.341Z,7.77
2018-12-20T09:49:50.559Z,10.20
2018-12-20T09:52:21.723Z,9.50
2018-12-20T09:54:53.442Z,5.77
2018-12-20T09:57:26.028Z,6.67
2018-12-20T09:59:55.483Z,7.20
2018-12-20T10:02:26.450Z,7.70
2018-12-20T10:04:57.692Z,7.77
2018-12-20T10:07:31.085Z,4.20
2018-12-20T10:10:02.913Z,5.93
2018-12-20T10:12:36.835Z,5.73
2018-12-20T10:15:08.014Z,9.63
2018-12-20T10:17:41.407Z,7.07
2018-12-20T10:20:15.254Z,6.63
2018-12-20T10:22:45.887Z,5.83
2018-12-20T10:25:20.052Z,6.07
2018-12-20T10:27:51.012Z,5.17
2018-12-20T10:30:22.707Z,7.10
2018-12-20T10:32:54.580Z,6.63
2018-12-20T10:35:26.430Z,4.83
2018-12-20T10:38:00.997Z,8.27
2018-12-20T10:40:31.595Z,5.50
2018-12-20T10:43:02.820Z,8.30
2018-12-20T10:45:33.580Z,6.40
2018-12-20T10:48:05.572Z,7.13
2018-12-20T10:50:36.835Z,4.67
2018-12-20T10:53:10.156Z,5.90
2018-12-20T10:55:41.645Z,5.47
2018-12-20T10:58:12.546Z,6.20
2018-12-20T11:00:49.159Z,5.73
2018-12-20T11:03:26.920Z,6.30
2018-12-20T11:06:00.709Z,5.00
2018-12-20T11:08:36.886Z,8.13
2018-12-20T11:11:15.067Z,9.67
2018-12-20T11:13:47.279Z,7.93
2018-12-20T11:16:19.178Z,3.87
2018-12-20T11:18:48.973Z,6.00
2018-12-20T11:21:19.829Z,5.53
2018-12-20T11:23:51.267Z,4.53
2018-12-20T11:26:22.667Z,7.87
2018-12-20T11:28:53.893Z,6.90
2018-12-20T11:31:25.530Z,6.53
2018-12-20T11:33:57.191Z,4.53
2018-12-20T11:36:28.591Z,10.03
2018-12-20T11:39:08.324Z,4.47
2018-12-20T11:41:37.372Z,5.93
2018-12-20T11:44:08.252Z,3.83
2018-12-20T11:46:39.320Z,8.57
2018-12-20T11:49:12.877Z,6.77
2018-12-20T11:51:43.757Z,4.57
2018-12-20T11:54:14.867Z,7.20
2018-12-20T11:56:45.727Z,4.80
2018-12-20T11:59:16.782Z,5.27
2018-12-20T12:01:47.762Z,3.37
2018-12-20T12:04:18.759Z,11.17
2018-12-20T12:06:49.680Z,8.43
2018-12-20T12:09:21.467Z,4.10
2018-12-20T12:11:52.788Z,5.83
2018-12-20T12:14:24.494Z,5.03
2018-12-20T12:16:55.658Z,5.47
2018-12-20T12:19:26.780Z,7.73
2018-12-20T12:22:00.307Z,7.60
2018-12-20T12:24:31.856Z,6.37
2018-12-20T12:27:05.351Z,4.83
2018-12-20T12:29:39.688Z,5.77
2018-12-20T12:32:10.899Z,6.73
2018-12-20T12:34:42.199Z,4.63
2018-12-20T12:37:13.942Z,7.00
2018-12-20T12:39:47.375Z,3.63
2018-12-20T12:42:19.031Z,3.87
2018-12-20T12:44:49.928Z,4.40
2018-12-20T12:47:29.109Z,4.77
2018-12-20T12:49:59.964Z,3.63
2018-12-20T12:52:30.903Z,5.43
2018-12-20T12:58:05.983Z,4.37
2018-12-20T13:00:39.400Z,5.20
2018-12-20T13:03:10.958Z,5.03
2018-12-20T13:05:42.630Z,5.13
2018-12-20T13:08:13.706Z,6.57
2018-12-20T13:10:44.616Z,4.77
2018-12-20T13:13:15.688Z,3.20
2018-12-20T13:15:46.983Z,3.70
2018-12-20T13:18:20.687Z,3.73
2018-12-20T13:20:54.651Z,4.97
2018-12-20T13:23:26.059Z,2.37
2018-12-20T13:25:57.160Z,3.77
2018-12-20T13:28:28.424Z,2.17
2018-12-20T13:30:59.218Z,4.07
2018-12-20T13:33:30.387Z,4.80
2018-12-20T13:36:01.371Z,4.37
2018-12-20T13:38:32.547Z,2.23
2018-12-20T13:41:05.979Z,2.70
2018-12-20T13:43:37.528Z,2.33
2018-12-20T13:46:08.493Z,3.47
2018-12-20T13:48:39.550Z,5.37
2018-12-20T13:51:11.175Z,3.77
2018-12-20T13:53:42.191Z,2.77
2018-12-20T13:56:16.058Z,3.77
2018-12-20T13:58:47.531Z,3.00
2018-12-20T14:01:21.068Z,2.43
2018-12-20T14:03:52.651Z,4.70
2018-12-20T14:06:26.863Z,2.93
2018-12-20T14:08:58.489Z,3.23
2018-12-20T14:11:29.302Z,3.73
2018-12-20T14:14:00.323Z,2.17
2018-12-20T14:16:31.576Z,4.20
2018-12-20T14:19:02.604Z,3.77
2018-12-20T14:21:33.380Z,3.47
2018-12-20T14:24:06.965Z,4.53
2018-12-20T14:26:38.453Z,9.00
2018-12-20T14:29:09.586Z,4.37
2018-12-20T14:31:40.715Z,4.40
2018-12-20T14:34:14.328Z,4.80
2018-12-20T14:36:45.667Z,3.77
2018-12-20T14:39:16.642Z,4.43
2018-12-20T14:41:47.383Z,3.23
2018-12-20T14:44:18.419Z,5.10
2018-12-20T14:46:51.915Z,3.67
2018-12-20T14:49:23.523Z,3.00
2018-12-20T14:51:54.532Z,2.93
2018-12-20T14:54:27.287Z,4.73
2018-12-20T14:56:58.466Z,4.97
2018-12-20T14:59:29.664Z,3.33
2018-12-20T15:02:00.724Z,3.60
2018-12-20T15:04:31.585Z,2.73
2018-12-20T15:07:05.084Z,3.23
2018-12-20T15:09:36.542Z,3.67
2018-12-20T15:12:07.840Z,4.70
2018-12-20T15:14:38.618Z,4.03
2018-12-20T15:17:09.684Z,4.17
2018-12-20T15:22:44.274Z,4.80
2018-12-20T15:25:15.605Z,3.57
2018-12-20T15:30:18.998Z,3.50
2018-12-20T15:32:50.893Z,4.77
2018-12-20T15:35:22.035Z,3.57
2018-12-20T15:37:53.075Z,4.50
2018-12-20T15:40:24.203Z,4.00
2018-12-20T15:42:55.249Z,3.33
2018-12-20T15:45:26.200Z,3.00
2018-12-20T15:47:57.533Z,2.50
2018-12-20T15:50:29.055Z,3.43
2018-12-20T15:53:00.015Z,4.03
2018-12-20T15:55:30.856Z,3.20
2018-12-20T15:57:59.803Z,5.57
2018-12-20T16:00:31.155Z,3.67
2018-12-20T16:03:02.273Z,3.33
2018-12-20T16:05:35.812Z,3.60
2018-12-20T16:08:06.679Z,4.47
2018-12-20T16:10:41.224Z,4.07
2018-12-20T16:13:12.331Z,3.00
2018-12-20T16:15:43.589Z,5.10
2018-12-20T16:18:14.503Z,6.70
2018-12-20T16:20:45.548Z,4.73
2018-12-20T16:23:16.888Z,5.73
2018-12-20T16:25:48.039Z,5.37
2018-12-20T16:28:19.880Z,4.73
2018-12-20T16:30:50.929Z,6.17
2018-12-20T16:33:21.612Z,3.67
2018-12-20T16:35:52.483Z,6.27
2018-12-20T16:38:25.832Z,4.10
2018-12-20T16:40:57.192Z,6.37
2018-12-20T16:43:28.148Z,4.43
2018-12-20T16:45:59.199Z,8.57
2018-12-20T16:48:30.116Z,6.90
2018-12-20T16:51:01.080Z,4.33
2018-12-20T16:53:32.195Z,6.00
2018-12-20T16:56:03.261Z,5.47
2018-12-20T16:58:34.367Z,8.03
2018-12-20T17:01:05.112Z,3.93
2018-12-20T17:03:36.895Z,5.13
2018-12-20T17:06:08.438Z,5.90
2018-12-20T17:08:47.774Z,3.73
2018-12-20T17:11:11.035Z,7.53
2018-12-20T17:13:42.713Z,6.10
2018-12-20T17:16:13.719Z,4.93
2018-12-20T17:18:45.019Z,7.33
2018-12-20T17:21:16.835Z,4.83
2018-12-20T17:23:47.708Z,7.17
2018-12-20T17:26:19.279Z,5.50
2018-12-20T17:28:51.182Z,4.20
2018-12-20T17:31:25.195Z,6.70
2018-12-20T17:33:56.861Z,7.50
2018-12-20T17:36:28.611Z,6.47
2018-12-20T17:38:59.735Z,5.47
2018-12-20T17:41:30.571Z,4.20
2018-12-20T17:44:02.947Z,3.03
2018-12-20T17:46:34.483Z,3.90
2018-12-20T17:49:05.453Z,4.73
2018-12-20T17:51:36.684Z,5.30
2018-12-20T17:54:07.515Z,7.60
2018-12-20T17:56:38.572Z,6.73
2018-12-20T17:59:09.975Z,9.10
2018-12-20T18:01:41.764Z,4.90
2018-12-20T18:04:12.801Z,4.47
2018-12-20T18:06:43.819Z,5.93
2018-12-20T18:09:17.415Z,3.83
2018-12-20T18:11:51.309Z,4.03
2018-12-20T18:14:22.865Z,3.13
2018-12-20T18:16:54.487Z,6.93
2018-12-20T18:19:25.478Z,4.80
2018-12-20T18:21:56.465Z,4.40
2018-12-20T18:24:27.536Z,5.17
2018-12-20T18:26:58.571Z,3.53
2018-12-20T18:29:32.031Z,4.87
2018-12-20T18:32:03.715Z,5.97
2018-12-20T18:34:34.635Z,4.17
2018-12-20T18:37:08.312Z,6.60
2018-12-20T18:39:41.957Z,5.03
2018-12-20T18:42:13.356Z,9.90
2018-12-20T18:44:44.139Z,3.90
2018-12-20T18:47:15.027Z,5.10
2018-12-20T18:49:47.612Z,6.70
2018-12-20T18:52:19.212Z,2.23
2018-12-20T18:54:52.876Z,5.23
2018-12-20T18:57:24.580Z,6.40
2018-12-20T18:59:55.373Z,4.47
2018-12-20T19:02:26.675Z,2.27
2018-12-20T19:04:57.983Z,7.63
2018-12-20T19:07:28.995Z,6.57
2018-12-20T19:10:00.171Z,3.23
2018-12-20T19:12:31.203Z,7.30
2018-12-20T19:15:02.445Z,2.50
2018-12-20T19:17:34.211Z,3.50
2018-12-20T19:20:15.843Z,3.37
2018-12-20T19:22:42.279Z,6.37
2018-12-20T19:25:13.073Z,5.37
2018-12-20T19:27:43.874Z,5.10
2018-12-20T19:30:17.508Z,3.93
2018-12-20T19:32:48.951Z,3.60
2018-12-20T19:35:20.483Z,6.30
2018-12-20T19:37:52.339Z,4.40
2018-12-20T19:40:26.015Z,2.73
2018-12-20T19:43:00.793Z,4.53
2018-12-20T19:45:31.971Z,5.83
2018-12-20T19:48:02.952Z,2.17
2018-12-20T19:50:34.687Z,6.73
2018-12-20T19:53:05.980Z,4.13
2018-12-20T19:55:39.448Z,5.23
2018-12-20T19:58:10.945Z,6.53
2018-12-20T20:00:42.130Z,4.80
2018-12-20T20:03:13.298Z,5.87
2018-12-20T20:08:47.635Z,8.57
2018-12-20T20:11:18.603Z,6.67
2018-12-20T20:13:52.347Z,7.67
2018-12-20T20:16:21.782Z,4.30
2018-12-20T20:18:53.127Z,7.83
2018-12-20T20:21:24.200Z,7.03
2018-12-20T20:23:55.135Z,4.10
2018-12-20T20:26:28.615Z,6.17
2018-12-20T20:29:00.039Z,8.13
2018-12-20T20:31:31.335Z,5.77
2018-12-20T20:34:03.624Z,7.23
2018-12-20T20:36:35.318Z,4.17
2018-12-20T20:39:07.519Z,4.67
2018-12-20T20:41:41.855Z,6.80
2018-12-20T20:44:13.195Z,4.80
2018-12-20T20:46:44.059Z,5.27
2018-12-20T20:49:15.063Z,6.37
2018-12-20T20:51:45.958Z,3.93
2018-12-20T20:54:19.696Z,4.90
2018-12-20T20:56:51.302Z,4.57
2018-12-20T20:59:22.277Z,5.77
2018-12-20T21:01:51.717Z,6.40
2018-12-20T21:04:22.759Z,4.67
2018-12-20T21:06:54.530Z,4.83
2018-12-20T21:09:25.635Z,2.13
2018-12-20T21:11:56.627Z,3.37
2018-12-20T21:14:27.630Z,4.40
2018-12-20T21:16:58.738Z,8.83
2018-12-20T21:19:32.447Z,3.40
2018-12-20T21:22:06.485Z,4.63
2018-12-20T21:24:37.912Z,6.67
2018-12-20T21:27:11.436Z,3.30
2018-12-20T21:29:43.116Z,3.90
2018-12-20T21:32:14.219Z,7.47
2018-12-20T21:34:47.719Z,7.30
2018-12-20T21:37:18.897Z,6.53
2018-12-20T21:39:52.371Z,6.90
2018-12-20T21:42:23.954Z,4.10
2018-12-20T21:44:54.979Z,7.40
2018-12-20T21:47:26.137Z,5.60
2018-12-20T21:50:00.624Z,6.10
2018-12-20T21:52:32.143Z,3.37
2018-12-20T21:55:03.547Z,7.27
2018-12-20T21:57:35.142Z,5.63
2018-12-20T22:00:09.175Z,5.87
2018-12-20T22:02:40.363Z,4.93
2018-12-20T22:05:11.484Z,6.77
2018-12-20T22:07:42.586Z,4.77
2018-12-20T22:10:13.455Z,5.37
2018-12-20T22:12:44.377Z,7.77
2018-12-20T22:15:15.274Z,4.80
2018-12-20T22:17:46.399Z,6.47
2018-12-20T22:20:17.277Z,6.90
2018-12-20T22:22:48.371Z,5.53
2018-12-20T22:25:22.001Z,5.70
2018-12-20T22:27:53.422Z,4.53
2018-12-20T22:30:24.562Z,2.93
2018-12-20T22:32:57.919Z,4.20
2018-12-20T22:35:31.554Z,5.07
2018-12-20T22:38:03.048Z,4.13
2018-12-20T22:40:33.934Z,6.50
2018-12-20T22:43:05.209Z,6.30
2018-12-20T22:45:36.856Z,5.20
2018-12-20T22:48:07.739Z,5.90
2018-12-20T22:50:38.763Z,3.93
2018-12-20T22:53:12.260Z,5.97
2018-12-20T22:55:43.934Z,5.73
2018-12-20T22:58:14.831Z,4.57
2018-12-20T23:00:52.879Z,6.50
2018-12-20T23:03:24.466Z,6.23
2018-12-20T23:05:55.639Z,5.13
2018-12-20T23:08:26.908Z,5.03
2018-12-20T23:10:57.858Z,3.60
2018-12-20T23:13:28.779Z,8.27
2018-12-20T23:15:59.795Z,2.97
2018-12-20T23:18:30.697Z,7.70
2018-12-20T23:21:05.025Z,6.27
2018-12-20T23:23:34.788Z,4.87
2018-12-20T23:26:06.023Z,3.87
2018-12-20T23:28:37.349Z,7.17
2018-12-20T23:31:09.057Z,5.03
2018-12-20T23:33:40.129Z,5.23
2018-12-20T23:36:11.157Z,7.60
2018-12-20T23:38:42.143Z,6.13
2018-12-20T23:41:13.183Z,4.17
2018-12-20T23:43:44.331Z,7.43
2018-12-20T23:46:15.511Z,3.90
2018-12-20T23:48:46.371Z,5.67
2018-12-20T23:51:18.230Z,5.70
2018-12-20T23:53:49.256Z,5.10
2018-12-20T23:56:22.691Z,5.93
2018-12-20T23:58:54.418Z,8.67
